Aviation Digital Data Service (ADDS)

Output produced by METARs form (1447 UTC 23 January 2019)
found at http://www.aviationweather.gov/metar/data/
 
Forecast for: DNKA (KADUNA (CIV/MIL), NG)
Text: TAF DNKA 230930Z 2312/2418 22006KT CAVOK
Forecast period: 1200 to 1800 UTC 23 January 2019
Forecast type: FROM: standard forecast or significant change
Winds: from the SW (220 degrees) at 7 MPH (6 knots; 3.1 m/s)
Visibility: 6 or more miles 10+ km)
Ceiling: unknown
Clouds: missing
Weather: NSW  (no significant weather)
Text: BECMG 2318/2320 12010KT
Forecast period: 1800 UTC 23 January 2019 to 1800 UTC 24 January 2019
Forecast type: BECOMING: Conditions expected to become as follows by 2000 UTC 23 January 2019
Winds: from the ESE (120 degrees) at 12 MPH (10 knots; 5.1 m/s)
Visibility: 6 or more miles 10+ km)
Ceiling: unknown
Clouds: missing
Weather: NSW  (no significant weather)